Terminal Aerodrome Forecast
Issued by NWS

Home | Current Version | Previous Version | Text Only | Print | Product List | Glossary On
Versions: 1 2 3 4 5 6 7 8 9 10 11 12 13 14
000
FTUS45 KLKN 261733
TAFELY
TAF
KELY 261733Z 2618/2718 21008KT P6SM SKC
     FM262000 20010KT P6SM VCSH SCT060 BKN200
      TEMPO 2622/2702 VRB15G25KT -TSRA BKN050CB
     FM270200 31010G20KT P6SM VCSH SCT060 BKN120
     FM270600 VRB06KT P6SM SCT060 OVC100=

USA.gov is the U.S. government's official web portal to all federal, state and local government web resources and services.